createdAt,value
2017-11-21T00:01:12.443Z,3.70
2017-11-21T00:03:38.868Z,3.70
2017-11-21T00:06:05.257Z,3.70
2017-11-21T00:08:31.664Z,3.50
2017-11-21T00:10:58.092Z,3.60
2017-11-21T00:13:25.238Z,3.70
2017-11-21T00:15:51.636Z,3.70
2017-11-21T00:18:18.041Z,3.70
2017-11-21T00:20:44.473Z,3.80
2017-11-21T00:23:10.879Z,3.80
2017-11-21T00:25:37.278Z,3.90
2017-11-21T00:28:03.681Z,4.00
2017-11-21T00:30:30.105Z,3.90
2017-11-21T00:32:56.514Z,4.00
2017-11-21T00:35:22.921Z,4.10
2017-11-21T00:37:50.049Z,4.10
2017-11-21T00:40:16.469Z,4.00
2017-11-21T00:42:42.884Z,4.10
2017-11-21T00:45:09.337Z,4.20
2017-11-21T00:47:35.764Z,4.20
2017-11-21T00:50:02.221Z,4.20
2017-11-21T00:52:28.641Z,4.20
2017-11-21T00:54:55.104Z,4.20
2017-11-21T00:57:21.518Z,4.10
2017-11-21T00:59:48.659Z,4.00
2017-11-21T01:02:15.063Z,4.00
2017-11-21T01:04:41.496Z,4.00
2017-11-21T01:07:07.905Z,4.00
2017-11-21T01:09:34.322Z,4.00
2017-11-21T01:12:01.450Z,4.10
2017-11-21T01:14:28.614Z,4.00
2017-11-21T01:16:55.784Z,4.00
2017-11-21T01:19:22.195Z,4.00
2017-11-21T01:21:49.344Z,4.00
2017-11-21T01:24:16.483Z,4.10
2017-11-21T01:26:43.617Z,4.10
2017-11-21T01:29:10.806Z,4.10
2017-11-21T01:31:37.965Z,4.10
2017-11-21T01:34:04.387Z,4.10
2017-11-21T01:36:31.570Z,4.00
2017-11-21T01:38:57.975Z,4.00
2017-11-21T01:41:25.108Z,3.90
2017-11-21T01:43:52.241Z,4.00
2017-11-21T01:46:18.654Z,4.00
2017-11-21T01:48:45.062Z,3.80
2017-11-21T01:51:11.470Z,3.80
2017-11-21T01:53:37.841Z,3.70
2017-11-21T01:56:04.234Z,3.80
2017-11-21T01:58:30.688Z,3.80
2017-11-21T02:00:57.084Z,3.90
2017-11-21T02:03:24.241Z,3.70
2017-11-21T02:05:50.652Z,3.70
2017-11-21T02:08:17.068Z,3.90
2017-11-21T02:10:44.234Z,4.10
2017-11-21T02:13:11.397Z,4.10
2017-11-21T02:15:37.787Z,4.10
2017-11-21T02:18:04.201Z,4.10
2017-11-21T02:20:30.649Z,4.30
2017-11-21T02:22:57.112Z,4.10
2017-11-21T02:25:24.320Z,4.20
2017-11-21T02:27:50.777Z,4.20
2017-11-21T02:30:17.232Z,4.30
2017-11-21T02:32:43.668Z,4.30
2017-11-21T02:35:10.882Z,4.30
2017-11-21T02:37:37.293Z,4.40
2017-11-21T02:40:03.742Z,4.40
2017-11-21T02:42:30.213Z,4.20
2017-11-21T02:44:57.403Z,4.20
2017-11-21T02:47:23.828Z,4.20
2017-11-21T02:49:50.272Z,4.10
2017-11-21T02:52:16.741Z,4.10
2017-11-21T02:54:43.172Z,4.10
2017-11-21T02:57:09.592Z,4.10
2017-11-21T02:59:36.110Z,4.20
2017-11-21T03:02:02.554Z,4.20
2017-11-21T03:04:28.957Z,4.20
2017-11-21T03:06:56.114Z,3.90
2017-11-21T03:09:22.512Z,3.90
2017-11-21T03:11:48.949Z,4.00
2017-11-21T03:14:16.149Z,3.90
2017-11-21T03:16:42.639Z,3.90
2017-11-21T03:19:09.843Z,3.90
2017-11-21T03:21:48.651Z,4.00
2017-11-21T03:24:27.393Z,4.10
2017-11-21T03:27:21.053Z,4.10
2017-11-21T03:29:47.478Z,4.10
2017-11-21T03:32:14.702Z,4.10
2017-11-21T03:34:41.127Z,4.10
2017-11-21T03:37:08.334Z,4.20
2017-11-21T03:39:34.734Z,4.20
2017-11-21T03:42:01.127Z,4.20
2017-11-21T03:44:28.416Z,4.20
2017-11-21T03:46:54.844Z,4.30
2017-11-21T03:49:21.254Z,4.30
2017-11-21T03:51:48.404Z,4.40
2017-11-21T03:54:15.609Z,4.40
2017-11-21T03:56:42.009Z,4.40
2017-11-21T03:59:08.409Z,4.50
2017-11-21T04:01:34.836Z,4.50
2017-11-21T04:04:01.235Z,4.50
2017-11-21T04:06:27.682Z,4.40
2017-11-21T04:08:54.071Z,4.60
2017-11-21T04:11:20.494Z,4.60
2017-11-21T04:13:47.792Z,4.60
2017-11-21T04:16:14.216Z,4.60
2017-11-21T04:18:40.648Z,4.80
2017-11-21T04:21:07.076Z,4.70
2017-11-21T04:23:33.531Z,4.70
2017-11-21T04:25:59.959Z,4.70
2017-11-21T04:28:26.384Z,4.60
2017-11-21T04:30:52.832Z,4.70
2017-11-21T04:33:19.576Z,4.70
2017-11-21T04:35:46.004Z,4.60
2017-11-21T04:38:12.419Z,4.70
2017-11-21T04:40:38.979Z,4.80
2017-11-21T04:43:05.388Z,4.80
2017-11-21T04:45:31.817Z,4.80
2017-11-21T04:47:58.226Z,4.80
2017-11-21T04:50:24.632Z,4.70
2017-11-21T04:52:51.775Z,4.70
2017-11-21T04:55:18.963Z,4.80
2017-11-21T04:57:45.393Z,4.80
2017-11-21T05:00:11.834Z,4.80
2017-11-21T05:02:38.261Z,4.90
2017-11-21T05:05:04.689Z,5.00
2017-11-21T05:07:31.092Z,5.00
2017-11-21T05:09:58.239Z,5.20
2017-11-21T05:12:24.673Z,5.20
2017-11-21T05:14:51.852Z,5.20
2017-11-21T05:17:18.429Z,5.10
2017-11-21T05:19:44.840Z,5.20
2017-11-21T05:22:11.270Z,5.30
2017-11-21T05:24:37.668Z,5.30
2017-11-21T05:27:04.885Z,5.20
2017-11-21T05:29:31.304Z,5.20
2017-11-21T05:31:57.891Z,5.30
2017-11-21T05:34:24.314Z,5.30
2017-11-21T05:36:51.465Z,5.30
2017-11-21T05:39:17.905Z,5.20
2017-11-21T05:41:45.104Z,5.20
2017-11-21T05:44:11.525Z,5.20
2017-11-21T05:46:37.944Z,5.20
2017-11-21T05:49:04.365Z,5.10
2017-11-21T05:51:30.817Z,5.20
2017-11-21T05:53:57.238Z,5.30
2017-11-21T05:56:23.648Z,5.40
2017-11-21T05:58:50.139Z,5.50
2017-11-21T06:01:16.576Z,5.60
2017-11-21T06:03:42.991Z,5.50
2017-11-21T06:06:09.396Z,5.60
2017-11-21T06:08:35.790Z,5.60
2017-11-21T06:11:02.194Z,5.60
2017-11-21T06:13:28.637Z,5.70
2017-11-21T06:15:55.036Z,5.70
2017-11-21T06:18:21.436Z,5.60
2017-11-21T06:20:48.592Z,5.50
2017-11-21T06:23:15.747Z,5.60
2017-11-21T06:25:42.919Z,5.50
2017-11-21T06:28:09.395Z,5.40
2017-11-21T06:30:35.840Z,5.40
2017-11-21T06:33:02.236Z,5.40
2017-11-21T06:35:28.645Z,5.60
2017-11-21T06:37:55.040Z,5.70
2017-11-21T06:40:21.444Z,5.50
2017-11-21T06:42:47.827Z,5.50
2017-11-21T06:45:14.273Z,5.70
2017-11-21T06:47:40.720Z,5.80
2017-11-21T06:50:07.118Z,5.80
2017-11-21T06:52:34.292Z,5.70
2017-11-21T06:55:00.697Z,5.70
2017-11-21T06:57:28.281Z,5.50
2017-11-21T06:59:56.416Z,5.50
2017-11-21T07:02:23.639Z,5.30
2017-11-21T07:04:50.046Z,5.30
2017-11-21T07:07:16.457Z,5.40
2017-11-21T07:09:43.614Z,5.70
2017-11-21T07:12:10.019Z,5.70
2017-11-21T07:14:37.151Z,5.90
2017-11-21T07:17:03.578Z,5.90
2017-11-21T07:19:29.997Z,5.80
2017-11-21T07:21:56.449Z,5.80
2017-11-21T07:24:22.877Z,5.80
2017-11-21T07:26:49.311Z,5.90
2017-11-21T07:29:15.730Z,5.90
2017-11-21T07:31:42.201Z,5.90
2017-11-21T07:34:08.645Z,5.90
2017-11-21T07:36:35.793Z,6.10
2017-11-21T07:39:02.294Z,6.10
2017-11-21T07:41:28.717Z,5.90
2017-11-21T07:43:55.124Z,6.00
2017-11-21T07:46:21.534Z,6.10
2017-11-21T07:48:48.681Z,6.10
2017-11-21T07:51:15.868Z,6.20
2017-11-21T07:53:42.337Z,6.20
2017-11-21T07:56:08.739Z,6.10
2017-11-21T07:58:35.138Z,6.10
2017-11-21T08:01:01.550Z,6.30
2017-11-21T08:03:27.952Z,6.30
2017-11-21T08:05:54.416Z,6.30
2017-11-21T08:08:21.552Z,6.30
2017-11-21T08:10:47.984Z,6.30
2017-11-21T08:13:15.901Z,6.20
2017-11-21T08:15:42.327Z,6.20
2017-11-21T08:18:08.780Z,6.20
2017-11-21T08:20:35.195Z,6.30
2017-11-21T08:23:01.671Z,6.50
2017-11-21T08:25:28.092Z,6.60
2017-11-21T08:27:54.565Z,6.70
2017-11-21T08:30:21.749Z,6.80
2017-11-21T08:32:48.229Z,6.80
2017-11-21T08:35:14.706Z,6.90
2017-11-21T08:37:41.138Z,6.80
2017-11-21T08:40:08.271Z,6.90
2017-11-21T08:42:34.680Z,6.90
2017-11-21T08:45:02.608Z,6.60
2017-11-21T08:47:29.086Z,6.70
2017-11-21T08:49:55.450Z,6.80
2017-11-21T08:52:22.611Z,7.20
2017-11-21T08:54:48.999Z,7.20
2017-11-21T08:57:15.369Z,7.00
2017-11-21T08:59:41.781Z,7.00
2017-11-21T09:02:08.947Z,7.10
2017-11-21T09:04:36.076Z,7.00
2017-11-21T09:07:02.492Z,7.00
2017-11-21T09:09:30.365Z,7.00
2017-11-21T09:11:57.477Z,6.90
2017-11-21T09:14:23.881Z,6.90
2017-11-21T09:16:50.271Z,6.90
2017-11-21T09:19:18.131Z,6.90
2017-11-21T09:21:44.520Z,6.90
2017-11-21T09:24:10.908Z,7.00
2017-11-21T09:26:37.300Z,7.00
2017-11-21T09:29:03.709Z,7.10
2017-11-21T09:31:30.109Z,7.00
2017-11-21T09:33:57.277Z,7.10
2017-11-21T09:36:24.409Z,7.00
2017-11-21T09:38:50.796Z,7.00
2017-11-21T09:41:17.224Z,7.00
2017-11-21T09:43:43.633Z,7.10
2017-11-21T09:46:10.062Z,7.10
2017-11-21T09:48:37.203Z,7.30
2017-11-21T09:51:04.379Z,7.20
2017-11-21T09:53:31.511Z,7.00
2017-11-21T09:55:57.951Z,7.00
2017-11-21T09:58:25.079Z,7.10
2017-11-21T10:00:52.211Z,7.10
2017-11-21T10:03:19.417Z,7.10
2017-11-21T10:05:45.844Z,7.10
2017-11-21T10:08:13.056Z,7.40
2017-11-21T10:10:40.240Z,7.40
2017-11-21T10:13:06.657Z,7.40
2017-11-21T10:15:33.822Z,7.60
2017-11-21T10:18:00.249Z,7.60
2017-11-21T10:20:26.665Z,7.60
2017-11-21T10:22:53.844Z,7.70
2017-11-21T10:25:20.321Z,7.70
2017-11-21T10:27:46.720Z,7.60
2017-11-21T10:30:13.162Z,7.60
2017-11-21T10:32:40.023Z,7.60
2017-11-21T10:35:06.468Z,7.70
2017-11-21T10:37:32.879Z,7.70
2017-11-21T10:39:59.329Z,7.60
2017-11-21T10:42:26.493Z,7.70
2017-11-21T10:44:53.626Z,7.70
2017-11-21T10:47:21.545Z,7.60
2017-11-21T10:49:47.990Z,7.60
2017-11-21T10:52:14.406Z,7.60
2017-11-21T10:54:40.796Z,7.30
2017-11-21T10:57:07.247Z,7.50
2017-11-21T10:59:34.988Z,7.60
2017-11-21T11:02:01.423Z,7.60
2017-11-21T11:04:27.917Z,7.60
2017-11-21T11:06:54.393Z,7.60
2017-11-21T11:09:20.868Z,7.90
2017-11-21T11:11:47.296Z,8.00
2017-11-21T11:14:14.471Z,8.00
2017-11-21T11:16:40.921Z,8.00
2017-11-21T11:19:07.354Z,8.00
2017-11-21T11:21:33.834Z,8.00
2017-11-21T11:24:01.022Z,7.90
2017-11-21T11:26:27.442Z,7.90
2017-11-21T11:28:53.928Z,8.00
2017-11-21T11:31:20.383Z,7.90
2017-11-21T11:33:47.577Z,7.70
2017-11-21T11:36:13.992Z,7.70
2017-11-21T11:38:40.438Z,7.90
2017-11-21T11:41:06.861Z,7.80
2017-11-21T11:43:33.286Z,7.70
2017-11-21T11:45:59.720Z,7.70
2017-11-21T11:48:26.198Z,7.70
2017-11-21T11:50:52.667Z,7.70
2017-11-21T11:53:19.851Z,7.60
2017-11-21T11:55:46.305Z,7.60
2017-11-21T11:58:12.769Z,7.70
2017-11-21T12:00:39.236Z,7.60
2017-11-21T12:03:05.701Z,7.60
2017-11-21T12:05:32.173Z,7.80
2017-11-21T12:07:59.159Z,7.80
2017-11-21T12:10:25.653Z,7.80
2017-11-21T12:12:52.130Z,7.90
2017-11-21T12:15:18.629Z,8.10
2017-11-21T12:17:45.841Z,8.00
2017-11-21T12:20:12.313Z,8.00
2017-11-21T12:22:39.510Z,8.30
2017-11-21T12:25:05.936Z,8.20
2017-11-21T12:27:32.376Z,8.20
2017-11-21T12:29:58.821Z,8.20
2017-11-21T12:32:25.264Z,8.20
2017-11-21T12:34:51.700Z,8.30
2017-11-21T12:37:18.159Z,8.30
2017-11-21T12:39:45.484Z,8.00
2017-11-21T12:42:11.937Z,8.00
2017-11-21T12:44:38.389Z,8.00
2017-11-21T12:47:05.583Z,8.00
2017-11-21T12:49:32.011Z,8.00
2017-11-21T12:51:58.433Z,8.10
2017-11-21T12:54:24.888Z,8.10
2017-11-21T12:56:51.370Z,8.10
2017-11-21T12:59:18.561Z,8.30
2017-11-21T13:01:44.996Z,8.30
2017-11-21T13:04:11.435Z,8.30
2017-11-21T13:06:37.864Z,8.10
2017-11-21T13:09:04.301Z,8.40
2017-11-21T13:11:30.750Z,8.20
2017-11-21T13:13:57.242Z,8.30
2017-11-21T13:16:23.710Z,8.40
2017-11-21T13:18:50.187Z,8.20
2017-11-21T13:21:17.379Z,8.30
2017-11-21T13:23:43.814Z,8.30
2017-11-21T13:26:10.277Z,8.30
2017-11-21T13:28:38.196Z,8.40
2017-11-21T13:31:04.623Z,8.40
2017-11-21T13:33:31.793Z,8.20
2017-11-21T13:35:58.231Z,8.20
2017-11-21T13:38:24.718Z,8.20
2017-11-21T13:40:51.160Z,8.10
2017-11-21T13:43:18.401Z,8.10
2017-11-21T13:45:45.606Z,8.20
2017-11-21T13:48:12.052Z,8.10
2017-11-21T13:50:38.568Z,8.30
2017-11-21T13:53:05.012Z,8.40
2017-11-21T13:55:31.489Z,8.40
2017-11-21T13:57:58.641Z,8.30
2017-11-21T14:00:25.885Z,8.30
2017-11-21T14:02:52.360Z,8.30
2017-11-21T14:05:33.759Z,8.40
2017-11-21T14:08:00.248Z,8.40
2017-11-21T14:10:26.734Z,8.60
2017-11-21T14:12:53.206Z,8.40
2017-11-21T14:15:20.448Z,8.40
2017-11-21T14:17:46.910Z,8.40
2017-11-21T14:20:14.132Z,8.40
2017-11-21T14:22:40.627Z,8.40
2017-11-21T14:25:07.135Z,8.30
2017-11-21T14:27:34.379Z,8.20
2017-11-21T14:30:01.597Z,8.10
2017-11-21T14:32:28.130Z,8.10
2017-11-21T14:34:54.608Z,8.30
2017-11-21T14:37:21.816Z,8.30
2017-11-21T14:39:49.055Z,8.30
2017-11-21T14:42:15.546Z,8.20
2017-11-21T14:44:42.037Z,8.30
2017-11-21T14:47:08.489Z,8.10
2017-11-21T14:49:34.916Z,8.20
2017-11-21T14:52:01.355Z,8.30
2017-11-21T14:54:27.801Z,8.20
2017-11-21T14:56:54.987Z,8.30
2017-11-21T14:59:21.435Z,8.30
2017-11-21T15:01:48.094Z,8.20
2017-11-21T15:04:14.521Z,8.30
2017-11-21T15:06:40.939Z,8.40
2017-11-21T15:09:07.594Z,8.20
2017-11-21T15:11:37.586Z,8.20
2017-11-21T15:14:04.022Z,8.20
2017-11-21T15:16:30.496Z,8.30
2017-11-21T15:18:57.043Z,8.20
2017-11-21T15:21:24.230Z,8.10
2017-11-21T15:23:50.715Z,8.10
2017-11-21T15:26:17.290Z,8.00
2017-11-21T15:28:43.768Z,8.10
2017-11-21T15:31:10.205Z,8.00
2017-11-21T15:33:37.405Z,8.30
2017-11-21T15:36:03.845Z,8.30
2017-11-21T15:38:30.253Z,8.20
2017-11-21T15:40:57.431Z,8.00
2017-11-21T15:43:23.862Z,8.00
2017-11-21T15:45:50.353Z,8.00
2017-11-21T15:48:16.763Z,8.00
2017-11-21T15:50:43.220Z,7.90
2017-11-21T15:53:10.405Z,8.10
2017-11-21T15:55:36.837Z,8.10
2017-11-21T15:58:03.336Z,8.10
2017-11-21T16:00:30.521Z,8.10
2017-11-21T16:02:56.943Z,8.10
2017-11-21T16:05:24.082Z,7.90
2017-11-21T16:07:51.252Z,8.00
2017-11-21T16:10:17.684Z,8.00
2017-11-21T16:12:44.147Z,8.00
2017-11-21T16:15:10.659Z,8.00
2017-11-21T16:17:37.060Z,8.00
2017-11-21T16:20:03.710Z,7.90
2017-11-21T16:22:30.906Z,8.00
2017-11-21T16:24:57.338Z,8.00
2017-11-21T16:27:23.772Z,8.00
2017-11-21T16:29:50.198Z,7.90
2017-11-21T16:32:16.593Z,7.90
2017-11-21T16:34:43.823Z,8.20
2017-11-21T16:37:11.044Z,8.10
2017-11-21T16:39:37.462Z,8.00
2017-11-21T16:42:03.885Z,8.20
2017-11-21T16:44:30.565Z,8.30
2017-11-21T16:46:56.943Z,8.30
2017-11-21T16:49:24.061Z,8.10
2017-11-21T16:51:50.469Z,8.10
2017-11-21T16:54:16.984Z,8.10
2017-11-21T16:56:43.416Z,8.20
2017-11-21T16:59:09.812Z,8.20
2017-11-21T17:01:36.996Z,8.10
2017-11-21T17:04:03.423Z,8.10
2017-11-21T17:06:29.842Z,8.10
2017-11-21T17:08:56.293Z,8.10
2017-11-21T17:11:22.706Z,8.00
2017-11-21T17:13:49.142Z,8.00
2017-11-21T17:16:15.586Z,8.10
2017-11-21T17:18:42.016Z,8.00
2017-11-21T17:21:09.421Z,8.00
2017-11-21T17:23:37.341Z,8.10
2017-11-21T17:26:04.553Z,8.10
2017-11-21T17:28:31.712Z,8.10
2017-11-21T17:30:58.854Z,8.00
2017-11-21T17:33:25.996Z,7.90
2017-11-21T17:35:53.154Z,7.90
2017-11-21T17:38:19.777Z,7.90
2017-11-21T17:40:46.258Z,8.00
2017-11-21T17:43:12.720Z,8.10
2017-11-21T17:45:39.129Z,8.10
2017-11-21T17:48:05.570Z,8.20
2017-11-21T17:50:32.004Z,8.20
2017-11-21T17:52:58.469Z,8.30
2017-11-21T17:55:25.644Z,8.10
2017-11-21T17:57:52.049Z,8.10
2017-11-21T18:00:19.969Z,8.10
2017-11-21T18:02:47.387Z,8.10
2017-11-21T18:05:13.881Z,8.00
2017-11-21T18:07:40.332Z,8.00
2017-11-21T18:10:08.262Z,8.00
2017-11-21T18:12:34.672Z,7.90
2017-11-21T18:15:01.870Z,8.00
2017-11-21T18:17:28.300Z,7.90
2017-11-21T18:19:54.748Z,7.90
2017-11-21T18:22:21.137Z,8.00
2017-11-21T18:24:47.635Z,8.10
2017-11-21T18:27:14.057Z,8.10
2017-11-21T18:29:40.495Z,8.00
2017-11-21T18:32:08.384Z,8.00
2017-11-21T18:34:35.521Z,8.00
2017-11-21T18:37:02.689Z,7.90
2017-11-21T18:39:29.156Z,7.90
2017-11-21T18:41:55.560Z,8.00
2017-11-21T18:44:22.728Z,8.00
2017-11-21T18:46:49.135Z,8.00
2017-11-21T18:49:16.279Z,8.00
2017-11-21T18:51:43.423Z,7.90
2017-11-21T18:54:09.808Z,7.90
2017-11-21T18:56:36.228Z,8.00
2017-11-21T18:59:02.687Z,8.00
2017-11-21T19:01:29.117Z,8.10
2017-11-21T19:03:55.561Z,8.00
2017-11-21T19:06:27.785Z,8.00
2017-11-21T19:08:54.244Z,8.10
2017-11-21T19:11:20.663Z,8.00
2017-11-21T19:13:47.107Z,8.00
2017-11-21T19:16:13.522Z,8.10
2017-11-21T19:18:39.962Z,8.20
2017-11-21T19:21:06.394Z,8.20
2017-11-21T19:23:32.796Z,8.00
2017-11-21T19:25:59.919Z,8.00
2017-11-21T19:28:26.373Z,8.00
2017-11-21T19:30:53.498Z,8.10
2017-11-21T19:33:19.966Z,8.10
2017-11-21T19:35:47.135Z,8.10
2017-11-21T19:38:13.533Z,8.10
2017-11-21T19:40:39.956Z,8.20
2017-11-21T19:43:07.838Z,8.30
2017-11-21T19:45:34.212Z,8.30
2017-11-21T19:48:00.603Z,8.30
2017-11-21T19:50:27.768Z,8.40
2017-11-21T19:52:54.213Z,8.40
2017-11-21T19:55:21.225Z,8.40
2017-11-21T19:57:47.636Z,8.40
2017-11-21T20:00:14.025Z,8.50
2017-11-21T20:02:40.422Z,8.60
2017-11-21T20:05:06.845Z,8.40
2017-11-21T20:07:34.038Z,8.30
2017-11-21T20:10:00.467Z,8.30
2017-11-21T20:12:27.889Z,8.40
2017-11-21T20:14:54.288Z,8.40
2017-11-21T20:17:20.670Z,8.40
2017-11-21T20:19:47.781Z,8.40
2017-11-21T20:22:14.194Z,8.40
2017-11-21T20:24:40.606Z,8.40
2017-11-21T20:27:07.043Z,8.40
2017-11-21T20:29:33.620Z,8.40
2017-11-21T20:32:00.063Z,8.40
2017-11-21T20:34:28.003Z,8.50
2017-11-21T20:36:54.443Z,8.50
2017-11-21T20:39:20.853Z,8.60
2017-11-21T20:41:47.276Z,8.50
2017-11-21T20:44:13.707Z,8.50
2017-11-21T20:46:40.108Z,8.60
2017-11-21T20:49:07.313Z,8.50
2017-11-21T20:51:33.723Z,8.50
2017-11-21T20:54:00.180Z,8.40
2017-11-21T20:56:26.606Z,8.50
2017-11-21T20:58:53.029Z,8.50
2017-11-21T21:01:19.459Z,8.40
2017-11-21T21:03:45.884Z,8.40
2017-11-21T21:06:12.283Z,8.50
2017-11-21T21:08:38.687Z,8.50
2017-11-21T21:11:05.065Z,8.60
2017-11-21T21:13:32.217Z,8.50
2017-11-21T21:15:59.369Z,8.40
2017-11-21T21:18:26.496Z,8.30
2017-11-21T21:20:52.902Z,8.30
2017-11-21T21:23:19.319Z,8.50
2017-11-21T21:25:45.704Z,8.50
2017-11-21T21:28:13.770Z,8.70
2017-11-21T21:30:41.160Z,8.50
2017-11-21T21:33:07.555Z,8.50
2017-11-21T21:35:33.941Z,8.50
2017-11-21T21:38:00.369Z,8.70
2017-11-21T21:40:26.771Z,8.70
2017-11-21T21:42:53.932Z,8.90
2017-11-21T21:45:20.382Z,8.90
2017-11-21T21:47:46.771Z,8.90
2017-11-21T21:50:13.923Z,9.20
2017-11-21T21:52:40.357Z,9.20
2017-11-21T21:55:07.539Z,9.10
2017-11-21T21:57:35.700Z,9.00
2017-11-21T22:00:03.024Z,9.00
2017-11-21T22:02:29.481Z,8.90
2017-11-21T22:04:56.615Z,9.10
2017-11-21T22:07:23.014Z,9.10
2017-11-21T22:09:49.473Z,9.10
2017-11-21T22:12:15.884Z,9.00
2017-11-21T22:14:42.319Z,9.00
2017-11-21T22:17:08.721Z,9.10
2017-11-21T22:19:35.081Z,9.00
2017-11-21T22:22:01.482Z,8.80
2017-11-21T22:24:28.617Z,8.90
2017-11-21T22:26:55.751Z,8.90
2017-11-21T22:29:22.886Z,8.80
2017-11-21T22:31:49.292Z,8.80
2017-11-21T22:34:15.764Z,8.70
2017-11-21T22:36:42.894Z,8.60
2017-11-21T22:39:09.298Z,8.60
2017-11-21T22:41:35.698Z,8.50
2017-11-21T22:44:02.102Z,8.50
2017-11-21T22:46:29.226Z,8.70
2017-11-21T22:48:55.632Z,8.70
2017-11-21T22:51:22.056Z,8.70
2017-11-21T22:53:48.496Z,8.60
2017-11-21T22:56:14.936Z,8.60
2017-11-21T22:58:41.339Z,8.50
2017-11-21T23:01:07.776Z,8.50
2017-11-21T23:03:34.188Z,8.40
2017-11-21T23:06:01.348Z,8.40
2017-11-21T23:08:28.495Z,8.40
2017-11-21T23:10:55.651Z,8.40
2017-11-21T23:13:22.836Z,8.30
2017-11-21T23:15:49.262Z,8.20
2017-11-21T23:18:15.665Z,8.20
2017-11-21T23:20:42.844Z,8.20
2017-11-21T23:23:09.261Z,8.20
2017-11-21T23:25:35.693Z,8.40
2017-11-21T23:28:02.118Z,8.30
2017-11-21T23:30:28.541Z,8.30
2017-11-21T23:32:55.704Z,8.30
2017-11-21T23:35:22.141Z,8.30
2017-11-21T23:37:49.213Z,8.30
2017-11-21T23:40:15.615Z,8.20
2017-11-21T23:42:42.012Z,8.20
2017-11-21T23:45:09.873Z,8.10
2017-11-21T23:47:36.984Z,7.90
2017-11-21T23:50:03.395Z,7.90
2017-11-21T23:52:29.812Z,8.00
2017-11-21T23:54:56.944Z,7.90
2017-11-21T23:57:23.332Z,7.90
2017-11-21T23:59:49.701Z,7.90
